sensor_id;sensor_type;location;lat;lon;timestamp;pressure;altitude;pressure_sealevel;temperature;humidity
32452;BME280;45528;52.102;5.242;2023-01-31T00:01:27;102030.0;;;10.31;56.35
32452;BME280;45528;52.102;5.242;2023-01-31T00:03:04;102032.0;;;10.18;56.25
32452;BME280;45528;52.102;5.242;2023-01-31T00:06:18;102043.0;;;10.16;56.53
32452;BME280;45528;52.102;5.242;2023-01-31T00:07:56;102045.0;;;10.16;56.71
32452;BME280;45528;52.102;5.242;2023-01-31T00:09:32;102040.0;;;10.31;56.48
32452;BME280;45528;52.102;5.242;2023-01-31T00:11:09;102034.0;;;10.3;56.39
32452;BME280;45528;52.102;5.242;2023-01-31T00:14:22;102028.0;;;10.15;56.51
32452;BME280;45528;52.102;5.242;2023-01-31T00:15:58;102027.0;;;10.35;56.55
32452;BME280;45528;52.102;5.242;2023-01-31T00:17:34;102025.0;;;10.32;56.96
32452;BME280;45528;52.102;5.242;2023-01-31T00:20:46;102027.0;;;10.09;57.09
32452;BME280;45528;52.102;5.242;2023-01-31T00:22:23;102031.0;;;10.57;56.43
32452;BME280;45528;52.102;5.242;2023-01-31T00:24:00;102025.0;;;10.68;55.98
32452;BME280;45528;52.102;5.242;2023-01-31T00:27:13;102014.0;;;10.57;56.19
32452;BME280;45528;52.102;5.242;2023-01-31T00:28:52;102005.0;;;10.66;55.79
32452;BME280;45528;52.102;5.242;2023-01-31T00:30:28;102002.0;;;10.69;56.08
32452;BME280;45528;52.102;5.242;2023-01-31T00:32:04;101996.0;;;10.58;56.21
32452;BME280;45528;52.102;5.242;2023-01-31T00:35:19;101998.0;;;10.68;55.94
32452;BME280;45528;52.102;5.242;2023-01-31T00:36:55;101991.0;;;10.78;55.65
32452;BME280;45528;52.102;5.242;2023-01-31T00:38:32;101983.0;;;10.62;55.94
32452;BME280;45528;52.102;5.242;2023-01-31T00:41:47;101980.0;;;10.68;56.13
32452;BME280;45528;52.102;5.242;2023-01-31T00:43:23;101969.0;;;10.74;55.95
32452;BME280;45528;52.102;5.242;2023-01-31T00:44:59;101969.0;;;10.77;55.66
32452;BME280;45528;52.102;5.242;2023-01-31T00:48:11;101974.0;;;10.64;55.74
32452;BME280;45528;52.102;5.242;2023-01-31T00:49:47;101969.0;;;10.52;55.79
32452;BME280;45528;52.102;5.242;2023-01-31T00:51:25;101970.0;;;10.38;55.98
32452;BME280;45528;52.102;5.242;2023-01-31T00:53:02;101964.0;;;10.28;56.19
32452;BME280;45528;52.102;5.242;2023-01-31T00:56:16;101956.0;;;10.26;56.15
32452;BME280;45528;52.102;5.242;2023-01-31T00:57:58;101959.0;;;10.15;56.41
32452;BME280;45528;52.102;5.242;2023-01-31T00:59:34;101962.0;;;10.14;56.47
32452;BME280;45528;52.102;5.242;2023-01-31T01:02:50;101956.0;;;10.06;56.51
32452;BME280;45528;52.102;5.242;2023-01-31T01:04:26;101968.0;;;9.98;56.63
32452;BME280;45528;52.102;5.242;2023-01-31T01:06:03;101966.0;;;10.03;56.64
32452;BME280;45528;52.102;5.242;2023-01-31T01:07:41;101968.0;;;10.01;56.71
32452;BME280;45528;52.102;5.242;2023-01-31T01:10:54;101959.0;;;9.91;56.95
32452;BME280;45528;52.102;5.242;2023-01-31T01:12:31;101960.0;;;9.89;57.0
32452;BME280;45528;52.102;5.242;2023-01-31T01:14:07;101958.0;;;9.86;56.88
32452;BME280;45528;52.102;5.242;2023-01-31T01:17:20;101963.0;;;9.81;57.36
32452;BME280;45528;52.102;5.242;2023-01-31T01:18:55;101957.0;;;9.88;57.2
32452;BME280;45528;52.102;5.242;2023-01-31T01:20:33;101956.0;;;9.85;57.08
32452;BME280;45528;52.102;5.242;2023-01-31T01:23:55;101959.0;;;9.84;57.02
32452;BME280;45528;52.102;5.242;2023-01-31T01:25:40;101961.0;;;9.91;57.14
32452;BME280;45528;52.102;5.242;2023-01-31T01:27:17;101953.0;;;9.83;57.14
32452;BME280;45528;52.102;5.242;2023-01-31T01:28:55;101955.0;;;9.88;57.08
32452;BME280;45528;52.102;5.242;2023-01-31T01:32:07;101958.0;;;9.86;57.09
32452;BME280;45528;52.102;5.242;2023-01-31T01:33:45;101949.0;;;9.9;57.0
32452;BME280;45528;52.102;5.242;2023-01-31T01:35:23;101952.0;;;9.91;56.96
32452;BME280;45528;52.102;5.242;2023-01-31T01:36:59;101949.0;;;9.93;57.14
32452;BME280;45528;52.102;5.242;2023-01-31T01:40:12;101951.0;;;9.73;57.8
32452;BME280;45528;52.102;5.242;2023-01-31T01:41:50;101950.0;;;9.96;57.25
32452;BME280;45528;52.102;5.242;2023-01-31T01:43:44;101952.0;;;9.86;57.18
32452;BME280;45528;52.102;5.242;2023-01-31T01:45:20;101951.0;;;9.82;57.51
32452;BME280;45528;52.102;5.242;2023-01-31T01:48:35;101951.0;;;9.84;57.61
32452;BME280;45528;52.102;5.242;2023-01-31T01:50:23;101958.0;;;10.05;57.33
32452;BME280;45528;52.102;5.242;2023-01-31T01:52:05;101963.0;;;10.06;57.4
32452;BME280;45528;52.102;5.242;2023-01-31T01:53:49;101965.0;;;10.21;57.15
32452;BME280;45528;52.102;5.242;2023-01-31T01:57:11;101959.0;;;10.19;57.28
32452;BME280;45528;52.102;5.242;2023-01-31T01:58:55;101964.0;;;10.33;56.99
32452;BME280;45528;52.102;5.242;2023-01-31T02:00:35;101970.0;;;10.38;57.07
32452;BME280;45528;52.102;5.242;2023-01-31T02:02:13;101968.0;;;10.37;57.13
32452;BME280;45528;52.102;5.242;2023-01-31T02:05:31;101973.0;;;10.56;57.06
32452;BME280;45528;52.102;5.242;2023-01-31T02:07:10;101972.0;;;10.51;57.16
32452;BME280;45528;52.102;5.242;2023-01-31T02:08:47;101969.0;;;10.62;57.05
32452;BME280;45528;52.102;5.242;2023-01-31T02:10:29;101961.0;;;10.66;57.05
32452;BME280;45528;52.102;5.242;2023-01-31T02:13:45;101957.0;;;10.64;57.07
32452;BME280;45528;52.102;5.242;2023-01-31T02:15:24;101957.0;;;10.75;57.17
32452;BME280;45528;52.102;5.242;2023-01-31T02:17:00;101962.0;;;10.74;57.13
32452;BME280;45528;52.102;5.242;2023-01-31T02:20:24;101961.0;;;10.77;57.37
32452;BME280;45528;52.102;5.242;2023-01-31T02:22:16;101961.0;;;10.81;57.51
32452;BME280;45528;52.102;5.242;2023-01-31T02:24:25;101963.0;;;10.84;57.52
32452;BME280;45528;52.102;5.242;2023-01-31T02:29:45;101969.0;;;11.09;57.16
32452;BME280;45528;52.102;5.242;2023-01-31T02:31:46;101960.0;;;11.03;57.57
32452;BME280;45528;52.102;5.242;2023-01-31T02:34:41;101958.0;;;11.19;57.28
32452;BME280;45528;52.102;5.242;2023-01-31T02:36:30;101957.0;;;11.32;57.02
32452;BME280;45528;52.102;5.242;2023-01-31T02:38:22;101956.0;;;11.38;56.76
32452;BME280;45528;52.102;5.242;2023-01-31T02:40:10;101951.0;;;11.31;57.18
32452;BME280;45528;52.102;5.242;2023-01-31T02:41:56;101942.0;;;11.4;57.02
32452;BME280;45528;52.102;5.242;2023-01-31T02:46:51;101934.0;;;11.37;57.45
32452;BME280;45528;52.102;5.242;2023-01-31T02:48:37;101930.0;;;11.3;57.65
32452;BME280;45528;52.102;5.242;2023-01-31T02:50:26;101932.0;;;11.29;57.71
32452;BME280;45528;52.102;5.242;2023-01-31T02:54:11;101943.0;;;11.39;57.52
32452;BME280;45528;52.102;5.242;2023-01-31T02:56:25;101935.0;;;11.45;57.48
32452;BME280;45528;52.102;5.242;2023-01-31T02:58:07;101928.0;;;11.24;57.94
32452;BME280;45528;52.102;5.242;2023-01-31T02:59:47;101925.0;;;11.21;58.29
32452;BME280;45528;52.102;5.242;2023-01-31T03:01:26;101927.0;;;11.22;58.5
32452;BME280;45528;52.102;5.242;2023-01-31T03:03:07;101934.0;;;11.38;58.07
32452;BME280;45528;52.102;5.242;2023-01-31T03:04:48;101933.0;;;11.37;58.06
32452;BME280;45528;52.102;5.242;2023-01-31T03:08:30;101930.0;;;11.48;57.68
32452;BME280;45528;52.102;5.242;2023-01-31T03:10:15;101928.0;;;11.48;57.41
32452;BME280;45528;52.102;5.242;2023-01-31T03:12:03;101939.0;;;11.48;57.65
32452;BME280;45528;52.102;5.242;2023-01-31T03:13:54;101928.0;;;11.4;57.89
32452;BME280;45528;52.102;5.242;2023-01-31T03:18:05;101930.0;;;11.5;57.72
32452;BME280;45528;52.102;5.242;2023-01-31T03:19:47;101920.0;;;11.52;57.86
32452;BME280;45528;52.102;5.242;2023-01-31T03:23:15;101920.0;;;11.52;57.85
32452;BME280;45528;52.102;5.242;2023-01-31T03:24:53;101912.0;;;11.39;58.4
32452;BME280;45528;52.102;5.242;2023-01-31T03:26:32;101910.0;;;11.62;57.61
32452;BME280;45528;52.102;5.242;2023-01-31T03:28:12;101917.0;;;11.61;57.48
32452;BME280;45528;52.102;5.242;2023-01-31T03:31:35;101903.0;;;11.37;58.28
32452;BME280;45528;52.102;5.242;2023-01-31T03:33:18;101908.0;;;11.62;57.73
32452;BME280;45528;52.102;5.242;2023-01-31T03:34:59;101906.0;;;11.33;58.66
32452;BME280;45528;52.102;5.242;2023-01-31T03:36:39;101898.0;;;11.27;58.8
32452;BME280;45528;52.102;5.242;2023-01-31T03:38:24;101901.0;;;11.71;57.89
32452;BME280;45528;52.102;5.242;2023-01-31T03:41:53;101897.0;;;11.85;57.67
32452;BME280;45528;52.102;5.242;2023-01-31T03:43:38;101890.0;;;11.61;57.97
32452;BME280;45528;52.102;5.242;2023-01-31T03:45:22;101895.0;;;11.6;58.3
32452;BME280;45528;52.102;5.242;2023-01-31T03:47:05;101881.0;;;11.59;58.48
32452;BME280;45528;52.102;5.242;2023-01-31T03:48:49;101872.0;;;11.85;57.59
32452;BME280;45528;52.102;5.242;2023-01-31T03:52:13;101881.0;;;11.78;57.55
32452;BME280;45528;52.102;5.242;2023-01-31T03:53:57;101883.0;;;11.7;57.87
32452;BME280;45528;52.102;5.242;2023-01-31T03:55:41;101888.0;;;11.71;58.0
32452;BME280;45528;52.102;5.242;2023-01-31T03:57:23;101888.0;;;11.7;57.89
32452;BME280;45528;52.102;5.242;2023-01-31T04:00:44;101885.0;;;11.65;58.25
32452;BME280;45528;52.102;5.242;2023-01-31T04:02:27;101883.0;;;11.58;58.1
32452;BME280;45528;52.102;5.242;2023-01-31T04:04:10;101884.0;;;11.54;58.36
32452;BME280;45528;52.102;5.242;2023-01-31T04:05:50;101886.0;;;11.59;58.43
32452;BME280;45528;52.102;5.242;2023-01-31T04:09:04;101881.0;;;11.6;58.09
32452;BME280;45528;52.102;5.242;2023-01-31T04:10:41;101881.0;;;11.62;57.96
32452;BME280;45528;52.102;5.242;2023-01-31T04:12:19;101878.0;;;11.62;58.02
32452;BME280;45528;52.102;5.242;2023-01-31T04:13:55;101875.0;;;11.49;58.32
32452;BME280;45528;52.102;5.242;2023-01-31T04:17:08;101870.0;;;11.57;57.77
32452;BME280;45528;52.102;5.242;2023-01-31T04:18:44;101867.0;;;11.53;57.82
32452;BME280;45528;52.102;5.242;2023-01-31T04:20:20;101873.0;;;11.62;57.94
32452;BME280;45528;52.102;5.242;2023-01-31T04:23:33;101857.0;;;11.69;58.06
32452;BME280;45528;52.102;5.242;2023-01-31T04:25:09;101862.0;;;11.57;58.46
32452;BME280;45528;52.102;5.242;2023-01-31T04:26:46;101857.0;;;11.52;58.67
32452;BME280;45528;52.102;5.242;2023-01-31T04:29:58;101852.0;;;11.55;58.86
32452;BME280;45528;52.102;5.242;2023-01-31T04:31:34;101853.0;;;11.55;58.71
32452;BME280;45528;52.102;5.242;2023-01-31T04:33:10;101851.0;;;11.43;59.27
32452;BME280;45528;52.102;5.242;2023-01-31T04:34:46;101849.0;;;11.65;58.72
32452;BME280;45528;52.102;5.242;2023-01-31T04:38:00;101850.0;;;11.63;59.13
32452;BME280;45528;52.102;5.242;2023-01-31T04:39:35;101853.0;;;11.76;58.89
32452;BME280;45528;52.102;5.242;2023-01-31T04:41:11;101861.0;;;11.75;58.39
32452;BME280;45528;52.102;5.242;2023-01-31T04:44:25;101861.0;;;11.98;58.04
32452;BME280;45528;52.102;5.242;2023-01-31T04:46:02;101856.0;;;11.83;58.28
32452;BME280;45528;52.102;5.242;2023-01-31T04:47:38;101851.0;;;11.94;58.34
32452;BME280;45528;52.102;5.242;2023-01-31T04:50:51;101847.0;;;11.7;58.94
32452;BME280;45528;52.102;5.242;2023-01-31T04:52:27;101834.0;;;11.54;59.37
32452;BME280;45528;52.102;5.242;2023-01-31T04:54:03;101836.0;;;11.6;59.72
32452;BME280;45528;52.102;5.242;2023-01-31T04:57:15;101836.0;;;11.59;59.85
32452;BME280;45528;52.102;5.242;2023-01-31T04:58:51;101837.0;;;11.48;60.03
32452;BME280;45528;52.102;5.242;2023-01-31T05:00:27;101841.0;;;11.42;60.32
32452;BME280;45528;52.102;5.242;2023-01-31T05:02:05;101836.0;;;11.76;59.72
32452;BME280;45528;52.102;5.242;2023-01-31T05:05:18;101838.0;;;11.51;60.14
32452;BME280;45528;52.102;5.242;2023-01-31T05:06:55;101832.0;;;11.57;60.15
32452;BME280;45528;52.102;5.242;2023-01-31T05:08:31;101830.0;;;11.7;59.99
32452;BME280;45528;52.102;5.242;2023-01-31T05:11:45;101828.0;;;11.8;59.61
32452;BME280;45528;52.102;5.242;2023-01-31T05:13:23;101825.0;;;11.92;59.44
32452;BME280;45528;52.102;5.242;2023-01-31T05:15:00;101822.0;;;11.9;59.6
32452;BME280;45528;52.102;5.242;2023-01-31T05:16:37;101819.0;;;11.69;60.2
32452;BME280;45528;52.102;5.242;2023-01-31T05:19:49;101820.0;;;11.73;60.07
32452;BME280;45528;52.102;5.242;2023-01-31T05:21:25;101816.0;;;11.81;59.85
32452;BME280;45528;52.102;5.242;2023-01-31T05:23:01;101813.0;;;11.65;60.02
32452;BME280;45528;52.102;5.242;2023-01-31T05:26:13;101822.0;;;11.97;59.42
32452;BME280;45528;52.102;5.242;2023-01-31T05:27:50;101813.0;;;11.97;59.27
32452;BME280;45528;52.102;5.242;2023-01-31T05:29:29;101812.0;;;12.01;59.4
32452;BME280;45528;52.102;5.242;2023-01-31T05:32:45;101805.0;;;12.08;59.14
32452;BME280;45528;52.102;5.242;2023-01-31T05:34:22;101810.0;;;12.06;58.96
32452;BME280;45528;52.102;5.242;2023-01-31T05:36:00;101812.0;;;11.77;59.87
32452;BME280;45528;52.102;5.242;2023-01-31T05:37:36;101810.0;;;12.1;59.15
32452;BME280;45528;52.102;5.242;2023-01-31T05:40:50;101808.0;;;12.21;58.9
32452;BME280;45528;52.102;5.242;2023-01-31T05:42:26;101813.0;;;12.13;58.91
32452;BME280;45528;52.102;5.242;2023-01-31T05:44:02;101805.0;;;12.08;59.19
32452;BME280;45528;52.102;5.242;2023-01-31T05:47:16;101806.0;;;12.2;58.76
32452;BME280;45528;52.102;5.242;2023-01-31T05:48:52;101798.0;;;12.19;58.86
32452;BME280;45528;52.102;5.242;2023-01-31T05:50:29;101803.0;;;12.06;59.23
32452;BME280;45528;52.102;5.242;2023-01-31T05:53:42;101802.0;;;12.0;59.26
32452;BME280;45528;52.102;5.242;2023-01-31T05:55:18;101797.0;;;11.98;59.59
32452;BME280;45528;52.102;5.242;2023-01-31T05:56:55;101795.0;;;12.18;59.1
32452;BME280;45528;52.102;5.242;2023-01-31T05:58:31;101805.0;;;11.96;59.99
32452;BME280;45528;52.102;5.242;2023-01-31T06:01:46;101805.0;;;12.26;59.06
32452;BME280;45528;52.102;5.242;2023-01-31T06:03:22;101806.0;;;12.36;58.69
32452;BME280;45528;52.102;5.242;2023-01-31T06:04:59;101803.0;;;12.35;58.73
32452;BME280;45528;52.102;5.242;2023-01-31T06:08:11;101805.0;;;12.13;59.3
32452;BME280;45528;52.102;5.242;2023-01-31T06:09:48;101799.0;;;12.0;59.51
32452;BME280;45528;52.102;5.242;2023-01-31T06:11:24;101795.0;;;12.14;59.41
32452;BME280;45528;52.102;5.242;2023-01-31T06:14:36;101782.0;;;12.04;59.76
32452;BME280;45528;52.102;5.242;2023-01-31T06:16:12;101774.0;;;11.95;60.2
32452;BME280;45528;52.102;5.242;2023-01-31T06:17:48;101764.0;;;12.23;59.34
32452;BME280;45528;52.102;5.242;2023-01-31T06:19:25;101772.0;;;12.06;59.64
32452;BME280;45528;52.102;5.242;2023-01-31T06:22:38;101771.0;;;12.39;58.92
32452;BME280;45528;52.102;5.242;2023-01-31T06:24:16;101768.0;;;12.12;59.26
32452;BME280;45528;52.102;5.242;2023-01-31T06:25:53;101773.0;;;12.27;59.17
32452;BME280;45528;52.102;5.242;2023-01-31T06:29:08;101777.0;;;12.44;58.63
32452;BME280;45528;52.102;5.242;2023-01-31T06:30:44;101783.0;;;12.28;58.95
32452;BME280;45528;52.102;5.242;2023-01-31T06:32:21;101773.0;;;12.21;58.97
32452;BME280;45528;52.102;5.242;2023-01-31T06:35:34;101778.0;;;12.0;59.74
32452;BME280;45528;52.102;5.242;2023-01-31T06:37:11;101777.0;;;12.36;58.9
32452;BME280;45528;52.102;5.242;2023-01-31T06:38:48;101766.0;;;11.97;60.06
32452;BME280;45528;52.102;5.242;2023-01-31T06:40:25;101759.0;;;12.07;59.49
32452;BME280;45528;52.102;5.242;2023-01-31T06:43:37;101755.0;;;12.45;58.38
32452;BME280;45528;52.102;5.242;2023-01-31T06:45:15;101751.0;;;12.05;59.49
32452;BME280;45528;52.102;5.242;2023-01-31T06:46:52;101742.0;;;12.09;59.27
32452;BME280;45528;52.102;5.242;2023-01-31T06:50:05;101740.0;;;12.19;58.86
32452;BME280;45528;52.102;5.242;2023-01-31T06:51:41;101739.0;;;12.43;58.31
32452;BME280;45528;52.102;5.242;2023-01-31T06:53:17;101741.0;;;12.34;58.42
32452;BME280;45528;52.102;5.242;2023-01-31T06:56:29;101745.0;;;11.76;59.94
32452;BME280;45528;52.102;5.242;2023-01-31T06:58:05;101737.0;;;12.04;59.06
32452;BME280;45528;52.102;5.242;2023-01-31T06:59:41;101737.0;;;12.33;58.82
32452;BME280;45528;52.102;5.242;2023-01-31T07:01:18;101746.0;;;11.95;59.71
32452;BME280;45528;52.102;5.242;2023-01-31T07:04:32;101738.0;;;12.03;59.51
32452;BME280;45528;52.102;5.242;2023-01-31T07:06:09;101738.0;;;12.4;58.71
32452;BME280;45528;52.102;5.242;2023-01-31T07:07:45;101723.0;;;12.43;58.47
32452;BME280;45528;52.102;5.242;2023-01-31T07:11:01;101719.0;;;12.43;58.36
32452;BME280;45528;52.102;5.242;2023-01-31T07:12:38;101720.0;;;12.15;59.45
32452;BME280;45528;52.102;5.242;2023-01-31T07:14:14;101716.0;;;12.16;59.6
32452;BME280;45528;52.102;5.242;2023-01-31T07:17:27;101709.0;;;12.24;59.13
32452;BME280;45528;52.102;5.242;2023-01-31T07:19:03;101722.0;;;12.45;58.54
32452;BME280;45528;52.102;5.242;2023-01-31T07:20:39;101716.0;;;12.22;59.0
32452;BME280;45528;52.102;5.242;2023-01-31T07:22:16;101719.0;;;12.44;58.6
32452;BME280;45528;52.102;5.242;2023-01-31T07:25:33;101725.0;;;12.53;58.22
32452;BME280;45528;52.102;5.242;2023-01-31T07:27:11;101720.0;;;11.81;60.17
32452;BME280;45528;52.102;5.242;2023-01-31T07:28:48;101726.0;;;12.31;58.98
32452;BME280;45528;52.102;5.242;2023-01-31T07:32:01;101725.0;;;12.46;58.75
32452;BME280;45528;52.102;5.242;2023-01-31T07:33:38;101713.0;;;12.22;59.28
32452;BME280;45528;52.102;5.242;2023-01-31T07:35:15;101711.0;;;12.08;59.76
32452;BME280;45528;52.102;5.242;2023-01-31T07:36:52;101718.0;;;12.44;58.86
32452;BME280;45528;52.102;5.242;2023-01-31T07:40:07;101714.0;;;12.53;58.74
32452;BME280;45528;52.102;5.242;2023-01-31T07:41:43;101710.0;;;11.92;59.84
32452;BME280;45528;52.102;5.242;2023-01-31T07:43:20;101721.0;;;12.47;59.22
32452;BME280;45528;52.102;5.242;2023-01-31T07:46:32;101714.0;;;12.25;59.73
32452;BME280;45528;52.102;5.242;2023-01-31T07:48:08;101709.0;;;12.27;59.67
32452;BME280;45528;52.102;5.242;2023-01-31T07:49:45;101710.0;;;12.31;59.73
32452;BME280;45528;52.102;5.242;2023-01-31T07:52:57;101705.0;;;12.46;59.11
32452;BME280;45528;52.102;5.242;2023-01-31T07:54:34;101705.0;;;12.57;58.91
32452;BME280;45528;52.102;5.242;2023-01-31T07:56:12;101705.0;;;12.48;59.04
32452;BME280;45528;52.102;5.242;2023-01-31T07:57:49;101693.0;;;12.64;58.66
32452;BME280;45528;52.102;5.242;2023-01-31T08:04:15;101684.0;;;12.56;59.04
32452;BME280;45528;52.102;5.242;2023-01-31T08:07:28;101686.0;;;12.69;58.75
32452;BME280;45528;52.102;5.242;2023-01-31T08:09:05;101688.0;;;12.99;58.06
32452;BME280;45528;52.102;5.242;2023-01-31T08:10:42;101685.0;;;12.86;58.43
32452;BME280;45528;52.102;5.242;2023-01-31T08:13:55;101689.0;;;12.66;58.91
32452;BME280;45528;52.102;5.242;2023-01-31T08:15:31;101688.0;;;12.79;58.42
32452;BME280;45528;52.102;5.242;2023-01-31T08:17:08;101680.0;;;13.0;57.82
32452;BME280;45528;52.102;5.242;2023-01-31T08:18:45;101677.0;;;12.86;58.06
32452;BME280;45528;52.102;5.242;2023-01-31T08:21:58;101670.0;;;12.73;58.33
32452;BME280;45528;52.102;5.242;2023-01-31T08:23:37;101660.0;;;12.94;57.94
32452;BME280;45528;52.102;5.242;2023-01-31T08:25:13;101650.0;;;12.82;58.19
32452;BME280;45528;52.102;5.242;2023-01-31T08:28:25;101649.0;;;12.53;58.96
32452;BME280;45528;52.102;5.242;2023-01-31T08:30:02;101660.0;;;12.73;58.41
32452;BME280;45528;52.102;5.242;2023-01-31T08:31:39;101653.0;;;12.86;58.25
32452;BME280;45528;52.102;5.242;2023-01-31T08:34:52;101645.0;;;12.81;58.11
32452;BME280;45528;52.102;5.242;2023-01-31T08:36:30;101643.0;;;12.75;58.29
32452;BME280;45528;52.102;5.242;2023-01-31T08:38:06;101642.0;;;12.55;59.01
32452;BME280;45528;52.102;5.242;2023-01-31T08:39:43;101641.0;;;12.67;58.63
32452;BME280;45528;52.102;5.242;2023-01-31T08:43:00;101648.0;;;12.53;58.99
32452;BME280;45528;52.102;5.242;2023-01-31T08:44:37;101655.0;;;12.96;58.01
32452;BME280;45528;52.102;5.242;2023-01-31T08:46:13;101655.0;;;12.75;58.13
32452;BME280;45528;52.102;5.242;2023-01-31T08:49:29;101650.0;;;12.7;58.52
32452;BME280;45528;52.102;5.242;2023-01-31T08:51:07;101651.0;;;12.87;58.37
32452;BME280;45528;52.102;5.242;2023-01-31T08:52:44;101655.0;;;12.61;58.85
32452;BME280;45528;52.102;5.242;2023-01-31T08:54:20;101658.0;;;12.56;59.26
32452;BME280;45528;52.102;5.242;2023-01-31T08:57:34;101647.0;;;12.39;59.45
32452;BME280;45528;52.102;5.242;2023-01-31T08:59:10;101653.0;;;12.84;58.13
32452;BME280;45528;52.102;5.242;2023-01-31T09:00:47;101655.0;;;12.76;58.52
32452;BME280;45528;52.102;5.242;2023-01-31T09:03:59;101659.0;;;12.44;58.96
32452;BME280;45528;52.102;5.242;2023-01-31T09:05:35;101658.0;;;12.35;59.54
32452;BME280;45528;52.102;5.242;2023-01-31T09:07:11;101666.0;;;12.73;58.82
32452;BME280;45528;52.102;5.242;2023-01-31T09:10:24;101658.0;;;12.81;58.35
32452;BME280;45528;52.102;5.242;2023-01-31T09:12:00;101649.0;;;12.74;58.62
32452;BME280;45528;52.102;5.242;2023-01-31T09:13:38;101658.0;;;12.96;58.19
32452;BME280;45528;52.102;5.242;2023-01-31T09:15:14;101655.0;;;12.76;58.69
32452;BME280;45528;52.102;5.242;2023-01-31T09:18:27;101651.0;;;12.68;59.01
32452;BME280;45528;52.102;5.242;2023-01-31T09:20:07;101648.0;;;12.88;58.48
32452;BME280;45528;52.102;5.242;2023-01-31T09:21:43;101648.0;;;12.54;59.33
32452;BME280;45528;52.102;5.242;2023-01-31T09:24:58;101646.0;;;12.74;59.17
32452;BME280;45528;52.102;5.242;2023-01-31T09:26:35;101636.0;;;12.51;59.6
32452;BME280;45528;52.102;5.242;2023-01-31T09:28:11;101639.0;;;12.94;58.58
32452;BME280;45528;52.102;5.242;2023-01-31T09:31:23;101646.0;;;12.91;58.47
32452;BME280;45528;52.102;5.242;2023-01-31T09:33:00;101642.0;;;12.86;58.94
32452;BME280;45528;52.102;5.242;2023-01-31T09:34:36;101636.0;;;12.72;59.31
32452;BME280;45528;52.102;5.242;2023-01-31T09:36:15;101635.0;;;12.94;58.89
32452;BME280;45528;52.102;5.242;2023-01-31T09:39:28;101633.0;;;12.95;58.81
32452;BME280;45528;52.102;5.242;2023-01-31T09:41:05;101632.0;;;13.03;58.67
32452;BME280;45528;52.102;5.242;2023-01-31T09:43:01;101630.0;;;13.08;58.36
32452;BME280;45528;52.102;5.242;2023-01-31T09:44:39;101634.0;;;13.13;58.43
32452;BME280;45528;52.102;5.242;2023-01-31T09:48:00;101630.0;;;13.21;58.04
32452;BME280;45528;52.102;5.242;2023-01-31T09:49:43;101634.0;;;12.95;58.54
32452;BME280;45528;52.102;5.242;2023-01-31T09:51:26;101632.0;;;13.18;58.23
32452;BME280;45528;52.102;5.242;2023-01-31T09:53:03;101626.0;;;13.06;58.4
32452;BME280;45528;52.102;5.242;2023-01-31T09:56:23;101622.0;;;13.14;58.16
32452;BME280;45528;52.102;5.242;2023-01-31T09:58:10;101624.0;;;13.16;58.23
32452;BME280;45528;52.102;5.242;2023-01-31T10:00:01;101623.0;;;13.12;58.35
32452;BME280;45528;52.102;5.242;2023-01-31T10:01:49;101632.0;;;12.73;59.59
32452;BME280;45528;52.102;5.242;2023-01-31T10:03:44;101628.0;;;13.02;59.01
32452;BME280;45528;52.102;5.242;2023-01-31T10:05:57;101633.0;;;13.04;58.69
32452;BME280;45528;52.102;5.242;2023-01-31T10:07:43;101641.0;;;13.47;57.94
32452;BME280;45528;52.102;5.242;2023-01-31T10:11:11;101638.0;;;12.9;59.53
32452;BME280;45528;52.102;5.242;2023-01-31T10:12:53;101631.0;;;13.38;58.31
32452;BME280;45528;52.102;5.242;2023-01-31T10:14:35;101624.0;;;13.45;57.85
32452;BME280;45528;52.102;5.242;2023-01-31T10:16:22;101639.0;;;13.45;57.77
32452;BME280;45528;52.102;5.242;2023-01-31T10:18:05;101631.0;;;13.56;57.91
32452;BME280;45528;52.102;5.242;2023-01-31T10:21:31;101627.0;;;13.51;57.94
32452;BME280;45528;52.102;5.242;2023-01-31T10:23:14;101621.0;;;13.32;58.72
32452;BME280;45528;52.102;5.242;2023-01-31T10:25:00;101628.0;;;13.38;58.41
32452;BME280;45528;52.102;5.242;2023-01-31T10:26:56;101630.0;;;13.31;58.43
32452;BME280;45528;52.102;5.242;2023-01-31T10:28:41;101625.0;;;13.79;57.6
32452;BME280;45528;52.102;5.242;2023-01-31T10:32:14;101617.0;;;13.77;57.69
32452;BME280;45528;52.102;5.242;2023-01-31T10:33:57;101615.0;;;13.59;58.05
32452;BME280;45528;52.102;5.242;2023-01-31T10:35:39;101624.0;;;13.57;58.06
32452;BME280;45528;52.102;5.242;2023-01-31T10:37:27;101621.0;;;13.36;58.61
32452;BME280;45528;52.102;5.242;2023-01-31T10:39:16;101610.0;;;13.35;58.8
32452;BME280;45528;52.102;5.242;2023-01-31T10:42:44;101603.0;;;13.59;58.54
32452;BME280;45528;52.102;5.242;2023-01-31T10:44:33;101610.0;;;13.64;58.53
32452;BME280;45528;52.102;5.242;2023-01-31T10:46:21;101595.0;;;13.6;58.39
32452;BME280;45528;52.102;5.242;2023-01-31T10:48:10;101597.0;;;13.58;58.8
32452;BME280;45528;52.102;5.242;2023-01-31T10:49:50;101602.0;;;13.62;58.87
32452;BME280;45528;52.102;5.242;2023-01-31T10:51:39;101599.0;;;13.78;58.45
32452;BME280;45528;52.102;5.242;2023-01-31T10:55:38;101606.0;;;13.63;59.01
32452;BME280;45528;52.102;5.242;2023-01-31T10:57:30;101605.0;;;13.92;58.39
32452;BME280;45528;52.102;5.242;2023-01-31T10:59:11;101598.0;;;13.37;60.01
32452;BME280;45528;52.102;5.242;2023-01-31T11:00:53;101606.0;;;13.73;59.25
32452;BME280;45528;52.102;5.242;2023-01-31T11:02:29;101595.0;;;13.46;59.88
32452;BME280;45528;52.102;5.242;2023-01-31T11:04:24;101595.0;;;13.35;60.65
32452;BME280;45528;52.102;5.242;2023-01-31T11:06:05;101608.0;;;13.62;59.66
32452;BME280;45528;52.102;5.242;2023-01-31T11:09:17;101603.0;;;13.64;60.02
32452;BME280;45528;52.102;5.242;2023-01-31T11:10:57;101605.0;;;13.92;59.22
32452;BME280;45528;52.102;5.242;2023-01-31T11:12:40;101610.0;;;13.51;60.01
32452;BME280;45528;52.102;5.242;2023-01-31T11:14:29;101609.0;;;13.98;58.87
32452;BME280;45528;52.102;5.242;2023-01-31T11:17:46;101612.0;;;13.83;59.22
32452;BME280;45528;52.102;5.242;2023-01-31T11:19:28;101611.0;;;13.84;59.49